• Join FlightAware (Why Join?)
  • Login
  • US Flag 
05:49PM EST


 

Airport Tracker/Info


-or-


 

Live Flight TrackerFlight Track Log ✈ RPA3865 ✈ 23-Apr-2013 ✈ KORF - KEWR

Flight Track Log - Related Links

Times and Time Zones

All times are in EDT time to prevent confusion due to time zone crossing. See the RPA3865 flight status page for this flight to view local times or setup timezone preferences in your user account.

Time Position Orientation Groundspeed Altitude Reporting Facility
EDT Latitude Longitude Course Direction KTS MPH feet Rate Location/Type
06:11AM 36.9014 -76.1972 300° West 155 178 800  Level Washington Center
06:12AM 36.9225 -76.1739 41° Northeast 168 193 2,900 2,760 Climbing Washington Center
06:12AM 36.9539 -76.1481 33° Northeast 178 205 4,600 2,940 Climbing Washington Center
06:13AM 36.9622 -76.1431 26° Northeast 183 211 5,600 2,880 Climbing Washington Center
06:13AM 37.0039 -76.1458 357° North 220 253 7,500 2,760 Climbing Washington Center
06:14AM 37.0498 -76.5228 300° West  Level FlightAware Approximate
06:14AM 37.0058 -76.1589 281° West 223 257 8,400  Level Washington Center
06:14AM 37.0244 -76.2136 293° West 224 258 10,100 2,640 Climbing Washington Center
06:15AM 37.1010 -76.6356 300° West  Level FlightAware Approximate
06:15AM 37.0325 -76.2372 293° West 234 269 11,100  Level Washington Center
06:15AM 37.0511 -76.2919 293° West 249 287 12,400 2,040 Climbing Washington Center
06:16AM 37.1523 -76.7484 300° West  Level FlightAware Approximate
06:16AM 37.0756 -76.3675 292° West 260 299 14,700  Level Washington Center
06:17AM 37.1022 -76.4486 292° West 260 299 17,000 1,740 Climbing Washington Center
06:18AM 37.1328 -76.5350 294° West 260 299 18,200 1,320 Climbing Washington Center
06:19AM 37.1633 -76.6239 293° West 266 306 19,700 1,320 Climbing Washington Center
06:20AM 37.1939 -76.7208 292° West 277 319 20,900 600 Climbing Washington Center
06:21AM 37.2303 -76.8231 294° West 300 345 21,000  Climbing Washington Center
06:22AM 37.2708 -76.9517 292° West 345 397 21,000  Level Washington Center
06:23AM 37.3072 -77.0514 295° West 353 406 21,000  Level Washington Center
06:24AM 37.4047 -77.0847 345° North 315 362 21,000  Level Washington Center
06:25AM 37.4886 -77.0469 20° North 319 367 21,000  Level Washington Center
06:26AM 37.5975 -77.0047 17° North 340 391 21,000  Level Washington Center
06:27AM 37.6942 -76.9617 19° North 357 411 21,000  Level Washington Center
06:28AM 37.7906 -76.9214 18° North 362 417 21,000  Level Washington Center
06:29AM 37.8889 -76.8811 18° North 367 422 21,000 -480 Level Washington Center
06:30AM 37.9833 -76.8300 23° Northeast 367 422 20,100 -960 Descending Washington Center
06:31AM 38.0322 -76.7200 61° Northeast 336 387 19,100 -1,020 Descending Washington Center
06:32AM 38.0689 -76.5992 69° East 343 395 18,100 -900 Descending Washington Center
06:33AM 38.1550 -76.5369 30° Northeast 329 379 17,400 -900 Descending Washington Center
06:34AM 38.2492 -76.4933 20° North 342 394 16,400 -1,080 Descending Washington Center
06:35AM 38.3389 -76.4519 20° North 342 394 15,300 -1,080 Descending Washington Center
06:36AM 38.4289 -76.4028 23° Northeast 342 394 14,300 -1,020 Descending Washington Center
06:37AM 38.5147 -76.3558 23° Northeast 337 388 13,300 -660 Descending Washington Center
06:38AM 38.6006 -76.3117 22° Northeast 331 381 13,000 -240 Descending Washington Center
06:39AM 38.6883 -76.2806 15° North 326 375 12,900 -60 Descending Washington Center
06:40AM 38.7719 -76.2494 16° North 319 367 12,900 -240 Level Washington Center
06:41AM 38.8533 -76.2019 24° Northeast 319 367 12,500 -660 Descending Washington Center
06:42AM 38.9369 -76.1575 22° Northeast 331 381 11,600 -780 Descending Washington Center
06:43AM 39.0164 -76.1044 27° Northeast 336 387 11,000 -300 Descending Washington Center
06:44AM 39.1000 -76.0622 21° North 330 380 11,000  Level Washington Center
06:45AM 39.1814 -76.0147 24° Northeast 319 367 11,000  Level Washington Center
06:46AM 39.2586 -75.9669 26° Northeast 314 361 11,000  Level Washington Center
06:48AM 39.4000 -75.8814 25° Northeast 317 365 11,000  Level FAA TRACON SMA TRACON (SMA)
06:48AM 39.4269 -75.8669 22° Northeast 317 365 11,000  Level FAA TRACON SMA TRACON (SMA)
06:49AM 39.4519 -75.8522 24° Northeast 317 365 11,000  Level FAA TRACON SMA TRACON (SMA)
06:49AM 39.4819 -75.8344 25° Northeast 317 365 11,000  Level FAA TRACON SMA TRACON (SMA)
06:49AM 39.5058 -75.8158 31° Northeast 316 364 11,000  Level FAA TRACON SMA TRACON (SMA)
06:50AM 39.5261 -75.7914 43° Northeast 321 369 11,000  Level FAA TRACON SMA TRACON (SMA)
06:50AM 39.5456 -75.7617 50° Northeast 324 373 11,000  Level FAA TRACON SMA TRACON (SMA)
06:50AM 39.5697 -75.7367 39° Northeast 319 367 11,000  Level FAA TRACON SMA TRACON (SMA)
06:51AM 39.5900 -75.7114 44° Northeast 319 367 11,000  Level FAA TRACON SMA TRACON (SMA)
06:51AM 39.6158 -75.6817 42° Northeast 319 367 11,000  Level FAA TRACON SMA TRACON (SMA)
06:51AM 39.6353 -75.6572 44° Northeast 320 368 11,000  Level FAA TRACON SMA TRACON (SMA)
06:52AM 39.6556 -75.6331 43° Northeast 320 368 11,000  Level FAA TRACON SMA TRACON (SMA)
06:52AM 39.6753 -75.6086 44° Northeast 319 367 11,000  Level FAA TRACON SMA TRACON (SMA)
06:52AM 39.6908 -75.5689 63° Northeast 316 364 11,000  Level FAA TRACON SMA TRACON (SMA)
06:53AM 39.7003 -75.5375 69° East 319 367 11,000  Level FAA TRACON SMA TRACON (SMA)
06:53AM 39.7089 -75.5025 72° East 319 367 11,000  Level FAA TRACON SMA TRACON (SMA)
06:53AM 39.7200 -75.4606 71° East 319 367 11,000  Level FAA TRACON SMA TRACON (SMA)
06:54AM 39.7289 -75.4272 71° East 319 367 11,000  Level FAA TRACON SMA TRACON (SMA)
06:54AM 39.7383 -75.3942 70° East 318 366 11,000  Level FAA TRACON SMA TRACON (SMA)
06:54AM 39.7503 -75.3550 68° East 319 367 11,000  Level FAA TRACON SMA TRACON (SMA)
06:55AM 39.7594 -75.3194 71° East 320 368 11,000  Level FAA TRACON SMA TRACON (SMA)
06:55AM 39.7692 -75.2861 69° East 321 369 11,000  Level FAA TRACON SMA TRACON (SMA)
06:55AM 39.7811 -75.2447 69° East 321 369 11,000 -300 Level FAA TRACON SMA TRACON (SMA)
06:56AM 39.7903 -75.2117 70° East 320 368 10,800 -900 Descending FAA TRACON SMA TRACON (SMA)
06:56AM 39.8011 -75.1722 70° East 312 359 10,400 -1,080 Descending FAA TRACON SMA TRACON (SMA)
06:56AM 39.8114 -75.1422 66° East 291 335 10,100 -960 Descending FAA TRACON SMA TRACON (SMA)
06:57AM 39.8200 -75.1125 69° East 286 329 9,800 -1,080 Descending FAA TRACON SMA TRACON (SMA)
06:57AM 39.8300 -75.0772 70° East 283 326 9,400 -1,080 Descending FAA TRACON SMA TRACON (SMA)
06:57AM 39.8378 -75.0472 71° East 277 319 9,100 -900 Descending FAA TRACON SMA TRACON (SMA)
06:58AM 39.8444 -75.0189 73° East 274 315 8,800 -1,080 Descending FAA TRACON SMA TRACON (SMA)
06:58AM 39.8581 -74.9858 62° Northeast 266 306 8,400 -1,080 Descending FAA TRACON SMA TRACON (SMA)
06:58AM 39.8733 -74.9639 48° Northeast 264 304 8,100 -900 Descending FAA TRACON SMA TRACON (SMA)
06:59AM 39.8856 -74.9483 44° Northeast 269 310 7,800 -1,080 Descending FAA TRACON SMA TRACON (SMA)
06:59AM 39.9097 -74.9169 45° Northeast 270 311 7,400 -1,080 Descending FAA TRACON SMA TRACON (SMA)
06:59AM 39.9244 -74.8967 47° Northeast 271 312 7,100 -660 Descending FAA TRACON SMA TRACON (SMA)
07:00AM 39.9414 -74.8725 48° Northeast 269 310 7,000 -180 Descending FAA TRACON SMA TRACON (SMA)
07:00AM 39.9606 -74.8453 47° Northeast 267 307 7,000  Level FAA TRACON SMA TRACON (SMA)
07:00AM 39.9733 -74.8256 50° Northeast 268 308 7,000  Level FAA TRACON SMA TRACON (SMA)
07:01AM 39.9922 -74.7944 52° Northeast 271 312 7,000  Level FAA TRACON SMA TRACON (SMA)
07:01AM 40.0078 -74.7708 49° Northeast 265 305 7,000  Level FAA TRACON SMA TRACON (SMA)
07:01AM 40.0214 -74.7508 48° Northeast 267 307 7,000  Level FAA TRACON SMA TRACON (SMA)
07:02AM 40.0392 -74.7278 45° Northeast 265 305 7,000  Level FAA TRACON SMA TRACON (SMA)
07:02AM 40.0589 -74.7000 47° Northeast 265 305 7,000  Level FAA TRACON SMA TRACON (SMA)
07:02AM 40.0650 -74.6747 72° East 261 300 7,000  Level FAA TRACON SMA TRACON (SMA)
07:03AM 40.0572 -74.6464 110° East 253 291 7,000  Level FAA TRACON SMA TRACON (SMA)
07:03AM 40.0336 -74.6300 152° Southeast 246 283 7,000 -180 Level FAA TRACON SMA TRACON (SMA)
07:03AM 40.0150 -74.6364 195° South 249 287 6,900  Descending FAA TRACON SMA TRACON (SMA)
07:04AM 39.9983 -74.6558 222° Southwest 247 284 7,000 120 Climbing FAA TRACON SMA TRACON (SMA)
07:04AM 39.9825 -74.6800 229° Southwest 242 278 7,000  Level FAA TRACON SMA TRACON (SMA)
07:04AM 39.9675 -74.6986 224° Southwest 235 270 7,000  Level FAA TRACON SMA TRACON (SMA)
07:05AM 39.9525 -74.7172 224° Southwest 234 269 7,000  Level FAA TRACON SMA TRACON (SMA)
07:05AM 39.9347 -74.7397 224° Southwest 231 266 7,000  Level FAA TRACON SMA TRACON (SMA)
07:05AM 39.9222 -74.7567 226° Southwest 231 266 7,000  Level FAA TRACON SMA TRACON (SMA)
07:06AM 39.9150 -74.7808 249° West 224 258 7,000  Level FAA TRACON SMA TRACON (SMA)
07:06AM 39.9258 -74.8056 300° West 207 238 7,000  Level FAA TRACON SMA TRACON (SMA)
07:06AM 39.9411 -74.8139 337° Northwest 220 253 7,000  Level FAA TRACON SMA TRACON (SMA)
07:07AM 39.9594 -74.8072 16° North 219 252 7,000  Level FAA TRACON SMA TRACON (SMA)
07:07AM 39.9778 -74.7900 36° Northeast 205 236 7,000  Level FAA TRACON SMA TRACON (SMA)
07:07AM 39.9928 -74.7758 36° Northeast 215 247 7,000  Level FAA TRACON SMA TRACON (SMA)
07:08AM 40.0072 -74.7614 37° Northeast 213 245 7,000  Level FAA TRACON SMA TRACON (SMA)
07:08AM 40.0233 -74.7456 37° Northeast 205 236 7,000  Level FAA TRACON SMA TRACON (SMA)
07:08AM 40.0378 -74.7319 36° Northeast 199 229 7,000  Level FAA TRACON SMA TRACON (SMA)
07:09AM 40.0472 -74.7161 52° Northeast 194 223 7,000  Level FAA TRACON SMA TRACON (SMA)
07:09AM 40.0400 -74.6908 110° East 207 238 7,000  Level FAA TRACON SMA TRACON (SMA)
07:09AM 40.0239 -74.6867 169° South 203 234 7,000  Level FAA TRACON SMA TRACON (SMA)
07:10AM 40.0089 -74.6947 202° Southwest 198 228 7,000  Level FAA TRACON SMA TRACON (SMA)
07:10AM 39.9925 -74.7108 217° Southwest 188 216 7,000  Level FAA TRACON SMA TRACON (SMA)
07:10AM 39.9808 -74.7264 226° Southwest 190 219 7,000  Level FAA TRACON SMA TRACON (SMA)
07:11AM 39.9689 -74.7417 224° Southwest 193 222 7,000  Level FAA TRACON SMA TRACON (SMA)
07:11AM 39.9556 -74.7619 229° Southwest 191 220 7,000  Level FAA TRACON SMA TRACON (SMA)
07:11AM 39.9444 -74.7778 228° Southwest 192 221 7,000  Level FAA TRACON SMA TRACON (SMA)
07:12AM 39.9336 -74.7936 228° Southwest 192 221 7,000  Level FAA TRACON SMA TRACON (SMA)
07:12AM 39.9197 -74.8128 227° Southwest 192 221 7,000  Level FAA TRACON SMA TRACON (SMA)
07:12AM 39.9081 -74.8292 227° Southwest 192 221 7,000  Level FAA TRACON SMA TRACON (SMA)
07:13AM 39.8967 -74.8447 226° Southwest 192 221 7,000  Level FAA TRACON SMA TRACON (SMA)
07:13AM 39.8856 -74.8606 228° Southwest 191 220 7,000  Level FAA TRACON SMA TRACON (SMA)
07:13AM 39.8828 -74.8856 262° West 178 205 7,000  Level FAA TRACON SMA TRACON (SMA)
07:14AM 39.8950 -74.8967 325° Northwest 177 204 7,000  Level FAA TRACON SMA TRACON (SMA)
07:14AM 39.9133 -74.8886 19° North 184 212 7,000  Level FAA TRACON SMA TRACON (SMA)
07:14AM 39.9264 -74.8764 36° Northeast 182 209 7,000  Level FAA TRACON SMA TRACON (SMA)
07:15AM 39.9386 -74.8619 42° Northeast 188 216 7,000  Level FAA TRACON SMA TRACON (SMA)
07:15AM 39.9497 -74.8469 46° Northeast 188 216 7,000  Level FAA TRACON SMA TRACON (SMA)
07:15AM 39.9661 -74.8250 46° Northeast 190 219 7,000  Level FAA TRACON SMA TRACON (SMA)
07:16AM 39.9783 -74.8089 45° Northeast 190 219 7,000  Level FAA TRACON SMA TRACON (SMA)
07:16AM 39.9872 -74.7975 44° Northeast 190 219 7,000  Level FAA TRACON SMA TRACON (SMA)
07:16AM 40.0017 -74.7789 45° Northeast 190 219 7,000  Level FAA TRACON SMA TRACON (SMA)
07:17AM 40.0133 -74.7639 45° Northeast 191 220 7,000  Level FAA TRACON SMA TRACON (SMA)
07:17AM 40.0272 -74.7469 43° Northeast 190 219 7,000  Level FAA TRACON SMA TRACON (SMA)
07:17AM 40.0389 -74.7303 48° Northeast 189 217 7,000  Level FAA TRACON SMA TRACON (SMA)
07:18AM 40.0447 -74.7106 69° East 198 228 7,000  Level FAA TRACON SMA TRACON (SMA)
07:18AM 40.0364 -74.6931 122° Southeast 200 230 7,000  Level FAA TRACON SMA TRACON (SMA)
07:18AM 40.0164 -74.6936 181° South 179 206 7,000  Level FAA TRACON SMA TRACON (SMA)
07:19AM 40.0022 -74.7050 212° Southwest 188 216 7,000  Level FAA TRACON SMA TRACON (SMA)
07:19AM 39.9872 -74.7225 222° Southwest 193 222 7,000  Level FAA TRACON SMA TRACON (SMA)
07:19AM 39.9758 -74.7383 227° Southwest 196 226 7,000  Level FAA TRACON SMA TRACON (SMA)
07:20AM 39.9639 -74.7547 226° Southwest 194 223 7,000  Level FAA TRACON SMA TRACON (SMA)
07:20AM 39.9531 -74.7708 229° Southwest 193 222 7,000  Level FAA TRACON SMA TRACON (SMA)
07:20AM 39.9389 -74.7908 227° Southwest 194 223 7,000  Level FAA TRACON SMA TRACON (SMA)
07:21AM 39.9275 -74.8067 227° Southwest 194 223 7,000  Level FAA TRACON SMA TRACON (SMA)
07:21AM 39.9161 -74.8233 228° Southwest 196 226 7,000  Level FAA TRACON SMA TRACON (SMA)
07:21AM 39.9019 -74.8419 225° Southwest 194 223 7,000  Level FAA TRACON SMA TRACON (SMA)
07:22AM 39.8903 -74.8586 228° Southwest 194 223 7,000  Level FAA TRACON SMA TRACON (SMA)
07:22AM 39.8825 -74.8772 241° Southwest 200 230 7,000  Level FAA TRACON SMA TRACON (SMA)
07:22AM 39.8928 -74.8969 304° West 194 223 7,000  Level FAA TRACON SMA TRACON (SMA)